createdAt,value
2018-09-20T00:00:59.841Z,12.60
2018-09-20T00:03:28.436Z,12.00
2018-09-20T00:05:56.921Z,12.20
2018-09-20T00:08:25.481Z,12.33
2018-09-20T00:10:54.080Z,12.33
2018-09-20T00:13:22.641Z,11.83
2018-09-20T00:15:51.197Z,12.70
2018-09-20T00:18:19.724Z,11.20
2018-09-20T00:20:48.259Z,10.97
2018-09-20T00:23:17.346Z,11.80
2018-09-20T00:25:45.871Z,11.73
2018-09-20T00:28:14.498Z,12.17
2018-09-20T00:30:43.018Z,11.97
2018-09-20T00:33:11.569Z,13.73
2018-09-20T00:35:40.100Z,14.03
2018-09-20T00:38:08.631Z,12.30
2018-09-20T00:40:37.204Z,12.47
2018-09-20T00:43:05.783Z,13.53
2018-09-20T00:45:34.344Z,11.40
2018-09-20T00:48:02.999Z,12.13
2018-09-20T00:50:31.577Z,11.90
2018-09-20T00:53:00.078Z,12.23
2018-09-20T00:55:28.653Z,13.23
2018-09-20T00:57:57.196Z,11.97
2018-09-20T01:00:25.840Z,11.77
2018-09-20T01:02:54.397Z,11.67
2018-09-20T01:05:22.980Z,11.93
2018-09-20T01:07:51.517Z,12.20
2018-09-20T01:10:20.560Z,11.70
2018-09-20T01:12:49.095Z,14.77
2018-09-20T01:15:17.682Z,12.63
2018-09-20T01:17:46.210Z,11.90
2018-09-20T01:20:15.457Z,12.70
2018-09-20T01:22:44.006Z,12.40
2018-09-20T01:25:12.897Z,13.37
2018-09-20T01:27:41.857Z,14.10
2018-09-20T01:30:10.449Z,14.20
2018-09-20T01:32:39.251Z,13.23
2018-09-20T01:35:07.924Z,15.00
2018-09-20T01:37:36.472Z,12.77
2018-09-20T01:40:05.103Z,13.70
2018-09-20T01:42:33.651Z,13.50
2018-09-20T01:45:02.214Z,13.60
2018-09-20T01:47:31.462Z,14.10
2018-09-20T01:50:00.161Z,12.90
2018-09-20T01:52:28.962Z,13.70
2018-09-20T01:54:57.508Z,12.73
2018-09-20T01:57:26.017Z,12.93
2018-09-20T01:59:54.566Z,13.73
2018-09-20T02:02:23.099Z,12.33
2018-09-20T02:04:51.665Z,12.80
2018-09-20T02:07:20.211Z,12.73
2018-09-20T02:09:48.749Z,12.90
2018-09-20T02:12:17.295Z,12.83
2018-09-20T02:14:45.835Z,13.10
2018-09-20T02:17:14.387Z,15.37
2018-09-20T02:19:42.948Z,13.27
2018-09-20T02:22:11.505Z,14.20
2018-09-20T02:24:40.031Z,13.93
2018-09-20T02:27:08.584Z,12.90
2018-09-20T02:29:37.124Z,15.07
2018-09-20T02:32:05.673Z,13.40
2018-09-20T02:34:34.208Z,12.83
2018-09-20T02:37:02.751Z,13.57
2018-09-20T02:39:31.277Z,14.33
2018-09-20T02:41:59.836Z,12.33
2018-09-20T02:44:28.375Z,12.60
2018-09-20T02:46:56.957Z,12.50
2018-09-20T02:49:25.486Z,14.33
2018-09-20T02:51:54.098Z,13.10
2018-09-20T02:54:22.625Z,13.67
2018-09-20T02:56:51.171Z,13.70
2018-09-20T02:59:19.692Z,13.90
2018-09-20T03:01:48.279Z,13.43
2018-09-20T03:04:16.795Z,14.30
2018-09-20T03:06:45.343Z,13.23
2018-09-20T03:09:13.877Z,14.60
2018-09-20T03:11:42.440Z,14.90
2018-09-20T03:14:10.958Z,14.47
2018-09-20T03:16:39.504Z,13.90
2018-09-20T03:19:08.031Z,15.00
2018-09-20T03:21:37.206Z,14.23
2018-09-20T03:24:05.817Z,15.03
2018-09-20T03:26:34.423Z,15.23
2018-09-20T03:29:02.962Z,15.53
2018-09-20T03:31:31.486Z,16.07
2018-09-20T03:34:00.031Z,14.77
2018-09-20T03:36:28.582Z,14.63
2018-09-20T03:38:57.091Z,15.73
2018-09-20T03:41:25.637Z,15.27
2018-09-20T03:43:54.265Z,15.87
2018-09-20T03:46:22.829Z,15.20
2018-09-20T03:48:51.371Z,14.87
2018-09-20T03:51:19.907Z,15.10
2018-09-20T03:53:48.424Z,15.43
2018-09-20T03:56:16.981Z,15.77
2018-09-20T03:58:45.524Z,15.43
2018-09-20T04:01:14.056Z,14.93
2018-09-20T04:03:42.589Z,17.07
2018-09-20T04:06:11.469Z,18.23
2018-09-20T04:08:40.006Z,15.67
2018-09-20T04:11:08.571Z,15.80
2018-09-20T04:13:37.328Z,15.67
2018-09-20T04:16:06.173Z,16.57
2018-09-20T04:18:34.972Z,15.53
2018-09-20T04:21:03.533Z,14.97
2018-09-20T04:23:32.041Z,16.10
2018-09-20T04:26:00.604Z,16.33
2018-09-20T04:28:29.126Z,14.97
2018-09-20T04:30:57.639Z,14.73
2018-09-20T04:33:26.212Z,14.80
2018-09-20T04:35:54.732Z,16.63
2018-09-20T04:38:23.278Z,15.70
2018-09-20T04:40:51.929Z,15.40
2018-09-20T04:43:20.468Z,15.67
2018-09-20T04:45:49.004Z,15.37
2018-09-20T04:48:17.576Z,15.70
2018-09-20T04:50:46.081Z,16.47
2018-09-20T04:53:14.645Z,17.33
2018-09-20T04:55:43.257Z,16.87
2018-09-20T04:58:12.487Z,17.50
2018-09-20T05:00:41.057Z,17.23
2018-09-20T05:03:09.606Z,16.63
2018-09-20T05:05:38.145Z,17.37
2018-09-20T05:08:06.696Z,16.03
2018-09-20T05:10:35.252Z,20.77
2018-09-20T05:13:03.795Z,19.13
2018-09-20T05:15:32.364Z,17.93
2018-09-20T05:18:00.908Z,16.40
2018-09-20T05:20:29.444Z,15.37
2018-09-20T05:22:57.994Z,16.73
2018-09-20T05:25:26.514Z,17.77
2018-09-20T05:27:55.080Z,15.63
2018-09-20T05:30:24.214Z,16.23
2018-09-20T05:32:52.778Z,16.00
2018-09-20T05:35:21.310Z,16.50
2018-09-20T05:37:49.875Z,19.33
2018-09-20T05:40:18.671Z,17.03
2018-09-20T05:42:47.231Z,17.03
2018-09-20T05:45:15.747Z,16.67
2018-09-20T05:47:44.313Z,17.37
2018-09-20T05:50:12.857Z,19.43
2018-09-20T05:52:41.807Z,15.00
2018-09-20T05:55:10.338Z,15.70
2018-09-20T05:57:38.877Z,15.63
2018-09-20T06:00:08.029Z,16.47
2018-09-20T06:02:36.934Z,17.20
2018-09-20T06:05:05.948Z,15.27
2018-09-20T06:07:34.566Z,16.47
2018-09-20T06:10:03.204Z,15.17
2018-09-20T06:12:31.747Z,15.60
2018-09-20T06:15:00.318Z,16.13
2018-09-20T06:17:28.838Z,16.03
2018-09-20T06:19:57.386Z,17.73
2018-09-20T06:22:25.896Z,17.10
2018-09-20T06:24:54.497Z,17.07
2018-09-20T06:27:23.027Z,19.17
2018-09-20T06:29:51.583Z,16.43
2018-09-20T06:32:20.146Z,16.40
2018-09-20T06:34:48.765Z,17.73
2018-09-20T06:37:17.292Z,18.60
2018-09-20T06:39:45.840Z,17.63
2018-09-20T06:42:14.366Z,16.13
2018-09-20T06:44:42.927Z,16.63
2018-09-20T06:47:11.546Z,18.17
2018-09-20T06:49:40.116Z,15.97
2018-09-20T06:52:08.671Z,15.23
2018-09-20T06:54:37.218Z,15.50
2018-09-20T06:57:06.750Z,15.67
2018-09-20T06:59:35.307Z,16.33
2018-09-20T07:02:03.829Z,18.87
2018-09-20T07:04:32.365Z,17.83
2018-09-20T07:07:00.912Z,19.63
2018-09-20T07:09:29.471Z,16.50
2018-09-20T07:11:57.979Z,19.13
2018-09-20T07:14:26.528Z,17.90
2018-09-20T07:16:55.062Z,17.23
2018-09-20T07:19:23.628Z,14.17
2018-09-20T07:21:52.145Z,15.00
2018-09-20T07:24:20.681Z,15.70
2018-09-20T07:26:49.218Z,16.00
2018-09-20T07:29:17.760Z,17.07
2018-09-20T07:31:46.287Z,16.23
2018-09-20T07:34:15.101Z,17.57
2018-09-20T07:36:43.653Z,17.17
2018-09-20T07:39:12.261Z,16.87
2018-09-20T07:41:40.834Z,14.10
2018-09-20T07:44:10.067Z,15.60
2018-09-20T07:46:38.601Z,18.60
2018-09-20T07:49:07.272Z,14.37
2018-09-20T07:51:35.835Z,14.27
2018-09-20T07:54:04.483Z,13.10
2018-09-20T07:56:33.606Z,12.37
2018-09-20T07:59:02.372Z,12.27
2018-09-20T08:01:31.075Z,13.57
2018-09-20T08:04:00.387Z,11.00
2018-09-20T08:06:28.975Z,11.43
2018-09-20T08:08:57.511Z,11.27
2018-09-20T08:11:26.044Z,13.87
2018-09-20T08:13:54.565Z,11.30
2018-09-20T08:16:23.145Z,11.67
2018-09-20T08:18:51.660Z,12.47
2018-09-20T08:21:20.280Z,13.63
2018-09-20T08:23:48.783Z,11.43
2018-09-20T08:26:17.338Z,11.83
2018-09-20T08:28:45.860Z,12.70
2018-09-20T08:31:14.434Z,12.17
2018-09-20T08:33:42.962Z,11.80
2018-09-20T08:36:11.542Z,11.17
2018-09-20T08:38:40.083Z,15.63
2018-09-20T08:41:08.938Z,12.33
2018-09-20T08:43:37.492Z,12.80
2018-09-20T08:46:06.042Z,13.30
2018-09-20T08:48:34.593Z,13.30
2018-09-20T08:51:03.261Z,11.50
2018-09-20T08:53:31.776Z,12.63
2018-09-20T08:56:00.399Z,11.60
2018-09-20T08:58:31.965Z,13.23
2018-09-20T09:01:01.987Z,12.00
2018-09-20T09:03:30.849Z,12.57
2018-09-20T09:05:59.604Z,11.13
2018-09-20T09:08:28.131Z,13.10
2018-09-20T09:10:56.682Z,12.53
2018-09-20T09:13:25.217Z,13.47
2018-09-20T09:15:53.768Z,10.70
2018-09-20T09:18:22.287Z,12.33
2018-09-20T09:20:50.837Z,11.67
2018-09-20T09:23:19.348Z,12.97
2018-09-20T09:25:47.905Z,9.77
2018-09-20T09:28:16.387Z,8.23
2018-09-20T09:30:44.925Z,11.57
2018-09-20T09:33:13.505Z,8.67
2018-09-20T09:35:42.065Z,10.13
2018-09-20T09:38:10.572Z,9.63
2018-09-20T09:40:39.111Z,8.47
2018-09-20T09:43:07.656Z,7.93
2018-09-20T09:45:36.208Z,7.97
2018-09-20T09:48:04.779Z,7.87
2018-09-20T09:50:33.343Z,7.60
2018-09-20T09:53:01.900Z,8.17
2018-09-20T09:55:30.453Z,7.90
2018-09-20T09:57:58.968Z,9.60
2018-09-20T10:00:32.369Z,9.73
2018-09-20T10:03:00.900Z,8.73
2018-09-20T10:05:29.464Z,9.30
2018-09-20T10:07:58.019Z,9.43
2018-09-20T10:10:26.578Z,7.60
2018-09-20T10:12:55.371Z,8.90
2018-09-20T10:15:24.233Z,8.30
2018-09-20T10:17:52.979Z,7.07
2018-09-20T10:20:21.816Z,10.40
2018-09-20T10:22:50.356Z,7.13
2018-09-20T10:25:18.909Z,8.87
2018-09-20T10:27:47.510Z,6.93
2018-09-20T10:30:16.045Z,7.43
2018-09-20T10:32:44.588Z,6.70
2018-09-20T10:35:13.088Z,7.87
2018-09-20T10:37:41.736Z,11.17
2018-09-20T10:40:10.243Z,6.57
2018-09-20T10:42:38.780Z,7.47
2018-09-20T10:45:07.320Z,7.87
2018-09-20T10:47:35.861Z,6.70
2018-09-20T10:50:04.446Z,7.78
2018-09-20T10:52:33.243Z,6.80
2018-09-20T10:55:01.774Z,8.85
2018-09-20T10:57:30.312Z,7.97
2018-09-20T10:59:58.828Z,7.97
2018-09-20T11:02:27.374Z,5.53
2018-09-20T11:04:55.906Z,6.05
2018-09-20T11:07:24.439Z,7.35
2018-09-20T11:09:52.958Z,7.45
2018-09-20T11:12:21.532Z,5.80
2018-09-20T11:14:52.943Z,5.75
2018-09-20T11:17:21.486Z,7.00
2018-09-20T11:19:50.020Z,7.72
2018-09-20T11:22:18.605Z,5.60
2018-09-20T11:24:47.201Z,5.95
2018-09-20T11:27:15.787Z,6.50
2018-09-20T11:29:44.308Z,5.70
2018-09-20T11:32:12.954Z,4.83
2018-09-20T11:34:41.498Z,4.90
2018-09-20T11:37:10.055Z,8.25
2018-09-20T11:39:38.571Z,5.35
2018-09-20T11:42:07.118Z,5.60
2018-09-20T11:44:35.640Z,6.92
2018-09-20T11:47:04.208Z,6.25
2018-09-20T11:49:32.855Z,6.33
2018-09-20T11:52:01.412Z,5.47
2018-09-20T11:54:29.983Z,6.72
2018-09-20T11:56:58.502Z,6.95
2018-09-20T11:59:27.032Z,5.33
2018-09-20T12:01:56.592Z,4.75
2018-09-20T12:04:25.047Z,5.87
2018-09-20T12:06:53.685Z,4.80
2018-09-20T12:09:23.111Z,4.75
2018-09-20T12:11:51.901Z,5.37
2018-09-20T12:14:20.593Z,7.58
2018-09-20T12:16:49.141Z,5.12
2018-09-20T12:19:19.792Z,7.25
2018-09-20T12:21:48.349Z,4.62
2018-09-20T12:24:16.864Z,4.70
2018-09-20T12:26:45.388Z,6.12
2018-09-20T12:29:13.968Z,4.90
2018-09-20T12:31:42.860Z,5.65
2018-09-20T12:34:11.418Z,5.55
2018-09-20T12:36:40.032Z,4.87
2018-09-20T12:39:11.517Z,4.40
2018-09-20T12:41:40.406Z,4.42
2018-09-20T12:44:08.939Z,4.80
2018-09-20T12:46:38.196Z,5.05
2018-09-20T12:49:07.040Z,4.60
2018-09-20T12:51:35.944Z,5.42
2018-09-20T12:54:05.075Z,5.45
2018-09-20T12:56:33.700Z,6.40
2018-09-20T12:59:02.299Z,4.30
2018-09-20T13:01:31.044Z,4.70
2018-09-20T13:03:59.614Z,5.30
2018-09-20T13:06:28.863Z,5.37
2018-09-20T13:08:57.413Z,6.10
2018-09-20T13:11:26.040Z,4.20
2018-09-20T13:13:54.605Z,6.33
2018-09-20T13:16:23.107Z,4.87
2018-09-20T13:18:51.668Z,8.13
2018-09-20T13:21:20.201Z,5.22
2018-09-20T13:23:48.840Z,4.58
2018-09-20T13:26:17.348Z,5.08
2018-09-20T13:28:45.897Z,5.10
2018-09-20T13:31:14.420Z,6.22
2018-09-20T13:33:42.961Z,4.70
2018-09-20T13:36:11.484Z,4.33
2018-09-20T13:38:40.047Z,4.78
2018-09-20T13:41:08.615Z,5.85
2018-09-20T13:43:37.183Z,6.87
2018-09-20T13:46:05.736Z,4.40
2018-09-20T13:48:34.308Z,4.50
2018-09-20T13:51:02.839Z,6.37
2018-09-20T13:53:31.388Z,5.60
2018-09-20T13:55:59.898Z,7.78
2018-09-20T13:58:28.436Z,8.05
2018-09-20T14:00:56.990Z,5.10
2018-09-20T14:03:25.565Z,7.35
2018-09-20T14:05:54.126Z,7.03
2018-09-20T14:08:22.720Z,5.45
2018-09-20T14:10:51.256Z,8.25
2018-09-20T14:13:19.795Z,4.83
2018-09-20T14:15:48.406Z,6.53
2018-09-20T14:18:16.965Z,4.03
2018-09-20T14:20:45.752Z,5.67
2018-09-20T14:23:14.266Z,4.37
2018-09-20T14:25:42.796Z,4.50
2018-09-20T14:28:11.334Z,4.25
2018-09-20T14:30:39.855Z,5.67
2018-09-20T14:33:08.368Z,4.72
2018-09-20T14:35:36.913Z,4.75
2018-09-20T14:38:05.745Z,4.40
2018-09-20T14:40:34.325Z,4.87
2018-09-20T14:43:02.840Z,4.17
2018-09-20T14:45:31.380Z,11.88
2018-09-20T14:48:00.820Z,5.00
2018-09-20T14:50:30.751Z,5.03
2018-09-20T14:53:00.125Z,6.03
2018-09-20T14:55:29.758Z,5.85
2018-09-20T14:57:59.171Z,4.03
2018-09-20T15:00:28.513Z,5.40
2018-09-20T15:02:58.024Z,8.63
2018-09-20T15:05:27.480Z,4.75
2018-09-20T15:07:57.043Z,4.85
2018-09-20T15:10:26.714Z,4.42
2018-09-20T15:12:56.222Z,4.90
2018-09-20T15:15:25.695Z,4.62
2018-09-20T15:17:55.257Z,5.20
2018-09-20T15:20:24.735Z,7.40
2018-09-20T15:22:54.329Z,8.68
2018-09-20T15:25:23.932Z,6.58
2018-09-20T15:27:53.456Z,5.47
2018-09-20T15:30:23.069Z,7.10
2018-09-20T15:32:52.669Z,7.50
2018-09-20T15:35:21.464Z,6.30
2018-09-20T15:37:50.328Z,8.13
2018-09-20T15:40:18.884Z,5.92
2018-09-20T15:42:47.463Z,4.78
2018-09-20T15:45:16.004Z,5.37
2018-09-20T15:47:44.536Z,5.30
2018-09-20T15:50:13.110Z,5.85
2018-09-20T15:52:41.672Z,5.95
2018-09-20T15:55:10.209Z,7.97
2018-09-20T15:57:38.918Z,5.80
2018-09-20T16:00:07.744Z,6.65
2018-09-20T16:02:36.260Z,7.20
2018-09-20T16:05:04.878Z,7.28
2018-09-20T16:07:33.434Z,6.95
2018-09-20T16:10:02.447Z,11.50
2018-09-20T16:12:30.987Z,8.25
2018-09-20T16:14:59.595Z,5.97
2018-09-20T16:17:28.216Z,6.83
2018-09-20T16:19:56.884Z,6.45
2018-09-20T16:22:25.440Z,5.70
2018-09-20T16:24:54.001Z,9.33
2018-09-20T16:27:22.538Z,10.68
2018-09-20T16:30:02.232Z,7.20
2018-09-20T16:32:42.039Z,12.73
2018-09-20T16:36:17.734Z,9.40
2018-09-20T16:38:50.463Z,9.70
2018-09-20T16:41:22.324Z,8.35
2018-09-20T16:43:50.894Z,9.53
2018-09-20T16:46:19.782Z,6.25
2018-09-20T16:48:48.566Z,8.95
2018-09-20T16:51:17.097Z,12.33
2018-09-20T16:53:45.638Z,6.78
2018-09-20T16:56:14.143Z,13.00
2018-09-20T16:58:49.387Z,9.70
2018-09-20T17:01:18.898Z,12.07
2018-09-20T17:03:47.762Z,8.25
2018-09-20T17:06:16.813Z,7.47
2018-09-20T17:08:46.256Z,13.65
2018-09-20T17:11:14.777Z,10.95
2018-09-20T17:13:43.343Z,7.25
2018-09-20T17:16:12.024Z,9.75
2018-09-20T17:18:40.508Z,10.30
2018-09-20T17:21:09.680Z,13.07
2018-09-20T17:23:38.242Z,15.37
2018-09-20T17:26:07.333Z,13.27
2018-09-20T17:28:36.503Z,20.83
2018-09-20T17:31:05.469Z,16.53
2018-09-20T17:33:34.144Z,14.90
2018-09-20T17:36:02.988Z,13.80
2018-09-20T17:38:32.541Z,23.80
2018-09-20T17:41:05.130Z,17.30
2018-09-20T17:43:45.450Z,13.47
2018-09-20T17:46:14.165Z,13.00
2018-09-20T17:48:42.740Z,13.53
2018-09-20T17:51:12.787Z,15.97
2018-09-20T17:53:42.613Z,16.93
2018-09-20T17:56:12.116Z,14.90
2018-09-20T17:58:41.325Z,20.97
2018-09-20T18:01:09.869Z,19.47
2018-09-20T18:03:38.709Z,16.97
2018-09-20T18:06:07.285Z,19.23
2018-09-20T18:08:36.124Z,20.37
2018-09-20T18:11:04.805Z,16.57
2018-09-20T18:13:33.351Z,18.17
2018-09-20T18:16:01.888Z,12.23
2018-09-20T18:18:32.232Z,18.07
2018-09-20T18:21:02.960Z,15.97
2018-09-20T18:23:31.712Z,13.80
2018-09-20T18:26:00.255Z,14.17
2018-09-20T18:28:31.373Z,8.97
2018-09-20T18:31:01.176Z,13.23
2018-09-20T18:33:30.018Z,13.40
2018-09-20T18:36:01.731Z,15.87
2018-09-20T18:38:30.279Z,13.07
2018-09-20T18:40:59.343Z,10.37
2018-09-20T18:43:27.917Z,13.70
2018-09-20T18:45:56.555Z,13.90
2018-09-20T18:48:25.481Z,11.93
2018-09-20T18:51:00.301Z,9.57
2018-09-20T18:53:29.273Z,12.93
2018-09-20T18:55:57.824Z,11.87
2018-09-20T18:58:27.290Z,9.23
2018-09-20T19:00:56.062Z,10.50
2018-09-20T19:03:24.582Z,13.13
2018-09-20T19:05:54.024Z,12.33
2018-09-20T19:08:22.584Z,17.20
2018-09-20T19:10:51.161Z,16.90
2018-09-20T19:13:19.683Z,17.10
2018-09-20T19:15:48.858Z,12.87
2018-09-20T19:18:17.402Z,16.10
2018-09-20T19:20:46.108Z,11.73
2018-09-20T19:23:14.911Z,13.83
2018-09-20T19:25:43.578Z,18.63
2018-09-20T19:28:12.130Z,20.80
2018-09-20T19:30:40.906Z,25.23
2018-09-20T19:33:09.479Z,17.67
2018-09-20T19:35:42.079Z,18.83
2018-09-20T19:38:10.653Z,10.17
2018-09-20T19:40:39.948Z,16.87
2018-09-20T19:43:09.124Z,16.33
2018-09-20T19:45:37.705Z,13.50
2018-09-20T19:48:06.296Z,14.80
2018-09-20T19:50:35.586Z,14.20
2018-09-20T19:53:04.145Z,12.40
2018-09-20T19:55:32.868Z,13.97
2018-09-20T19:58:01.420Z,13.80
2018-09-20T20:00:30.062Z,12.57
2018-09-20T20:02:58.656Z,13.13
2018-09-20T20:05:27.394Z,14.70
2018-09-20T20:07:55.988Z,15.90
2018-09-20T20:10:25.652Z,16.17
2018-09-20T20:12:54.193Z,16.87
2018-09-20T20:15:22.770Z,15.10
2018-09-20T20:17:51.336Z,19.70
2018-09-20T20:20:19.947Z,17.03
2018-09-20T20:22:48.500Z,13.80
2018-09-20T20:25:17.058Z,16.47
2018-09-20T20:27:45.669Z,11.93
2018-09-20T20:30:14.262Z,12.40
2018-09-20T20:32:42.865Z,16.73
2018-09-20T20:35:11.484Z,12.50
2018-09-20T20:37:40.130Z,12.20
2018-09-20T20:40:08.688Z,15.60
2018-09-20T20:42:37.258Z,12.53
2018-09-20T20:45:05.911Z,14.80
2018-09-20T20:47:34.431Z,14.90
2018-09-20T20:50:02.947Z,13.00
2018-09-20T20:52:31.498Z,15.17
2018-09-20T20:55:00.012Z,10.83
2018-09-20T20:57:28.574Z,14.23
2018-09-20T20:59:57.409Z,15.70
2018-09-20T21:02:27.396Z,11.40
2018-09-20T21:04:56.029Z,12.80
2018-09-20T21:07:25.070Z,16.17
2018-09-20T21:09:54.669Z,12.30
2018-09-20T21:12:23.222Z,12.83
2018-09-20T21:14:51.746Z,11.00
2018-09-20T21:17:20.336Z,13.97
2018-09-20T21:19:48.836Z,11.83
2018-09-20T21:22:17.374Z,10.83
2018-09-20T21:24:45.958Z,11.87
2018-09-20T21:27:14.633Z,12.70
2018-09-20T21:29:43.175Z,14.73
2018-09-20T21:32:12.407Z,13.63
2018-09-20T21:34:41.153Z,10.87
2018-09-20T21:37:09.671Z,12.67
2018-09-20T21:39:38.323Z,10.20
2018-09-20T21:42:06.885Z,13.13
2018-09-20T21:44:35.455Z,10.27
2018-09-20T21:47:04.331Z,11.53
2018-09-20T21:49:32.885Z,10.77
2018-09-20T21:52:01.396Z,10.97
2018-09-20T21:54:29.964Z,10.40
2018-09-20T21:56:58.510Z,10.23
2018-09-20T21:59:27.083Z,10.47
2018-09-20T22:02:03.681Z,10.40
2018-09-20T22:04:33.121Z,10.80
2018-09-20T22:07:01.804Z,11.07
2018-09-20T22:09:30.978Z,11.17
2018-09-20T22:11:59.542Z,10.77
2018-09-20T22:14:28.227Z,10.90
2018-09-20T22:17:27.255Z,11.97
2018-09-20T22:19:55.827Z,11.00
2018-09-20T22:22:24.383Z,10.67
2018-09-20T22:24:52.945Z,11.03
2018-09-20T22:27:22.255Z,10.83
2018-09-20T22:29:50.863Z,12.07
2018-09-20T22:32:19.559Z,11.07
2018-09-20T22:34:48.149Z,10.73
2018-09-20T22:37:16.733Z,11.20
2018-09-20T22:39:45.534Z,11.23
2018-09-20T22:42:14.107Z,10.77
2018-09-20T22:44:42.822Z,11.57
2018-09-20T22:47:11.321Z,12.67
2018-09-20T22:49:39.868Z,12.80
2018-09-20T22:52:08.428Z,11.00
2018-09-20T22:54:36.998Z,10.93
2018-09-20T22:57:05.768Z,11.87
2018-09-20T22:59:34.630Z,11.50
2018-09-20T23:02:03.188Z,10.57
2018-09-20T23:04:31.757Z,10.87
2018-09-20T23:07:00.350Z,12.03
2018-09-20T23:09:28.901Z,10.73
2018-09-20T23:11:57.508Z,11.23
2018-09-20T23:14:26.057Z,10.40
2018-09-20T23:16:55.053Z,10.47
2018-09-20T23:19:23.694Z,11.07
2018-09-20T23:21:52.438Z,11.77
2018-09-20T23:24:21.568Z,11.33
2018-09-20T23:26:50.115Z,11.20
2018-09-20T23:29:19.377Z,10.87
2018-09-20T23:31:47.964Z,10.97
2018-09-20T23:34:16.529Z,10.80
2018-09-20T23:36:45.742Z,11.67
2018-09-20T23:39:14.445Z,10.80
2018-09-20T23:41:43.000Z,10.97
2018-09-20T23:44:11.540Z,10.63
2018-09-20T23:46:40.112Z,10.50
2018-09-20T23:49:08.705Z,11.70
2018-09-20T23:51:37.237Z,11.27
2018-09-20T23:54:06.067Z,11.50
2018-09-20T23:56:34.637Z,12.53
2018-09-20T23:59:03.199Z,12.50
